Time;durP1;ratioP1;P1;durP2;ratioP2;P2;SDS_P1;SDS_P2;PMS_P1;PMS_P2;Temp;Humidity;BMP_temperature;BMP_pressure;BME280_temperature;BME280_humidity;BME280_pressure;Samples;Min_cycle;Max_cycle;Signal;HPM_P1;HPM_P2
2022/02/01 00:01:07;;;;;;;;;;;28.00;89.70;;;;;;5092636;28;19966;-51
2022/02/01 00:03:36;;;;;;;;;;;27.90;90.00;;;;;;5092792;28;19955;-56
2022/02/01 00:08:41;;;;;;;;;;;28.20;88.70;;;;;;5124640;27;19916;-56
2022/02/01 00:13:53;;;;;;;;;;;28.30;88.60;;;;;;5092753;28;19969;-59
2022/02/01 00:19:33;;;;;;;;;;;28.40;88.20;;;;;;5092599;28;20231;-61
2022/02/01 00:33:38;;;;;;;;;;;28.70;87.80;;;;;;5093230;28;19915;-58
2022/02/01 00:36:11;;;;;;;;;;;28.70;88.00;;;;;;5092711;28;20273;-58
2022/02/01 00:41:14;;;;;;;;;;;28.80;87.90;;;;;;5096760;28;19916;-56
2022/02/01 00:43:40;;;;;;;;;;;28.70;87.80;;;;;;5096800;28;19973;-60
2022/02/01 00:46:07;;;;;;;;;;;28.70;87.60;;;;;;5096612;28;19988;-63
2022/02/01 00:48:34;;;;;;;;;;;28.80;88.10;;;;;;5097043;28;19914;-60
2022/02/01 00:51:02;;;;;;;;;;;29.00;87.40;;;;;;5096844;28;20312;-58
2022/02/01 00:53:31;;;;;;;;;;;29.00;87.20;;;;;;5096845;28;19908;-57
2022/02/01 00:55:58;;;;;;;;;;;29.00;87.00;;;;;;5096150;28;19919;-56
2022/02/01 00:58:25;;;;;;;;;;;29.10;86.60;;;;;;5096558;28;19931;-57
2022/02/01 01:00:52;;;;;;;;;;;29.20;86.30;;;;;;5095833;28;19916;-59
2022/02/01 01:03:19;;;;;;;;;;;29.20;86.30;;;;;;5096106;28;20373;-56
2022/02/01 01:05:46;;;;;;;;;;;29.20;86.20;;;;;;5096430;28;20216;-62
2022/02/01 01:08:12;;;;;;;;;;;29.40;85.60;;;;;;5095874;28;20323;-61
2022/02/01 01:10:40;;;;;;;;;;;29.50;85.50;;;;;;5096430;28;20358;-59
2022/02/01 01:46:14;;;;;;;;;;;29.90;84.00;;;;;;5095398;28;19919;-59
2022/02/01 01:53:54;;;;;;;;;;;30.10;82.90;;;;;;5095266;28;19915;-59
2022/02/01 01:56:21;;;;;;;;;;;30.10;83.10;;;;;;5095013;28;19918;-58
2022/02/01 01:58:50;;;;;;;;;;;30.20;83.10;;;;;;5095116;28;19927;-59
2022/02/01 02:01:17;;;;;;;;;;;30.30;82.50;;;;;;5094894;28;19931;-58
2022/02/01 02:03:48;;;;;;;;;;;30.40;80.30;;;;;;5094906;28;19985;-60
2022/02/01 02:06:33;;;;;;;;;;;30.60;81.50;;;;;;5094692;28;20362;-58
2022/02/01 02:09:05;;;;;;;;;;;30.40;80.60;;;;;;5094898;28;20291;-61
2022/02/01 02:14:24;;;;;;;;;;;30.20;83.00;;;;;;5094739;28;19961;-55
2022/02/01 02:16:55;;;;;;;;;;;30.20;81.10;;;;;;5094744;28;20223;-59
2022/02/01 02:19:23;;;;;;;;;;;30.20;83.20;;;;;;5092168;28;19908;-58
2022/02/01 02:21:53;;;;;;;;;;;30.30;82.30;;;;;;5094358;28;20381;-56
2022/02/01 02:24:20;;;;;;;;;;;30.30;82.20;;;;;;5094839;28;19927;-57
2022/02/01 02:26:49;;;;;;;;;;;30.40;81.50;;;;;;5094536;28;19918;-57
2022/02/01 02:29:16;;;;;;;;;;;30.60;80.70;;;;;;5094998;28;19959;-56
2022/02/01 02:31:43;;;;;;;;;;;30.70;81.20;;;;;;5094706;28;19928;-54
2022/02/01 02:34:13;;;;;;;;;;;30.80;79.00;;;;;;5095012;28;19908;-56
2022/02/01 02:36:46;;;;;;;;;;;30.80;79.30;;;;;;5094694;28;19920;-56
2022/02/01 02:47:09;;;;;;;;;;;30.60;80.30;;;;;;5095144;28;20456;-57
2022/02/01 02:49:36;;;;;;;;;;;30.90;79.80;;;;;;5094610;28;19944;-59
2022/02/01 02:52:03;;;;;;;;;;;31.00;78.50;;;;;;5094847;28;19908;-59
2022/02/01 02:54:30;;;;;;;;;;;31.10;79.60;;;;;;5094577;28;19908;-57
2022/02/01 02:56:58;;;;;;;;;;;31.10;78.10;;;;;;5094443;28;19919;-59
2022/02/01 02:59:26;;;;;;;;;;;31.00;80.10;;;;;;5093825;28;20268;-50
2022/02/01 03:01:54;;;;;;;;;;;31.20;72.40;;;;;;5092102;28;19943;-58
2022/02/01 03:04:23;;;;;;;;;;;31.10;79.60;;;;;;5092907;28;19908;-59
2022/02/01 03:06:50;;;;;;;;;;;31.30;75.30;;;;;;5094679;28;19908;-60
2022/02/01 03:09:18;;;;;;;;;;;31.30;77.90;;;;;;5093984;28;19932;-55
2022/02/01 03:11:46;;;;;;;;;;;31.30;78.20;;;;;;5094227;28;20309;-56
2022/02/01 03:20:16;;;;;;;;;;;31.70;74.30;;;;;;5082418;28;19916;-60
2022/02/01 03:22:42;;;;;;;;;;;31.90;71.90;;;;;;5093815;28;20275;-59
2022/02/01 03:25:11;;;;;;;;;;;32.00;75.00;;;;;;5093735;28;19931;-60
2022/02/01 03:30:22;;;;;;;;;;;31.80;76.50;;;;;;5094031;28;19915;-56
2022/02/01 03:32:50;;;;;;;;;;;32.00;73.60;;;;;;5093897;28;19954;-59
2022/02/01 03:35:16;;;;;;;;;;;31.90;74.80;;;;;;5093659;28;19913;-56
2022/02/01 03:37:43;;;;;;;;;;;31.80;75.70;;;;;;5093927;28;19908;-55
2022/02/01 03:40:15;;;;;;;;;;;31.80;75.50;;;;;;5092418;28;19912;-51
2022/02/01 03:42:41;;;;;;;;;;;31.80;76.10;;;;;;5093536;28;19916;-56
2022/02/01 03:45:09;;;;;;;;;;;31.80;74.40;;;;;;5093444;28;20377;-60
2022/02/01 03:47:36;;;;;;;;;;;31.60;77.20;;;;;;5093775;28;20273;-53
2022/02/01 03:50:09;;;;;;;;;;;31.40;77.50;;;;;;5092073;28;19908;-52
2022/02/01 03:52:36;;;;;;;;;;;31.50;77.10;;;;;;5093754;28;19944;-57
2022/02/01 03:55:04;;;;;;;;;;;31.50;76.70;;;;;;5093152;28;20374;-57
2022/02/01 03:57:31;;;;;;;;;;;31.50;77.60;;;;;;5092149;28;20057;-60
2022/02/01 03:59:58;;;;;;;;;;;31.40;76.80;;;;;;5092935;28;19939;-48
2022/02/01 04:05:09;;;;;;;;;;;31.30;77.10;;;;;;5093566;28;19933;-56
2022/02/01 04:07:35;;;;;;;;;;;31.30;77.90;;;;;;5093602;28;20350;-55
2022/02/01 04:10:02;;;;;;;;;;;31.10;79.00;;;;;;5093372;28;19920;-53
2022/02/01 04:12:30;;;;;;;;;;;31.00;79.80;;;;;;5093572;28;20345;-59
2022/02/01 04:14:58;;;;;;;;;;;30.90;79.90;;;;;;5092505;28;20007;-57
2022/02/01 04:17:25;;;;;;;;;;;31.00;79.20;;;;;;5125632;27;20355;-50
2022/02/01 04:19:51;;;;;;;;;;;30.80;79.70;;;;;;5092664;28;20012;-56
2022/02/01 04:22:19;;;;;;;;;;;30.70;80.10;;;;;;5093327;28;19916;-59
2022/02/01 04:27:31;;;;;;;;;;;30.60;81.30;;;;;;5093245;28;19967;-59
2022/02/01 04:30:06;;;;;;;;;;;30.50;81.30;;;;;;5093024;28;19912;-54
2022/02/01 04:32:37;;;;;;;;;;;30.50;81.20;;;;;;5091731;28;19915;-59
2022/02/01 04:35:05;;;;;;;;;;;30.50;82.00;;;;;;5091128;28;20287;-57
2022/02/01 04:37:54;;;;;;;;;;;30.60;80.90;;;;;;5093090;28;20007;-57
2022/02/01 04:40:22;;;;;;;;;;;30.60;81.40;;;;;;5093090;28;19988;-53
2022/02/01 04:42:50;;;;;;;;;;;30.40;82.50;;;;;;5091391;28;19931;-57
2022/02/01 04:45:19;;;;;;;;;;;30.40;82.50;;;;;;5092453;28;19916;-58
2022/02/01 04:48:04;;;;;;;;;;;30.30;83.30;;;;;;5093067;28;19908;-55
2022/02/01 04:50:31;;;;;;;;;;;30.20;82.70;;;;;;5091685;28;19908;-57
2022/02/01 04:52:58;;;;;;;;;;;30.40;83.00;;;;;;5091348;28;19953;-54
2022/02/01 04:55:51;;;;;;;;;;;30.30;83.30;;;;;;5092982;28;19908;-55
2022/02/01 04:58:15;;;;;;;;;;;30.30;83.40;;;;;;5092585;28;19919;-58
2022/02/01 05:00:42;;;;;;;;;;;30.40;82.90;;;;;;5092438;28;19917;-60
2022/02/01 05:03:09;;;;;;;;;;;30.40;82.40;;;;;;5092927;28;19969;-59
2022/02/01 05:05:56;;;;;;;;;;;30.30;82.30;;;;;;5092132;28;20022;-54
2022/02/01 05:08:25;;;;;;;;;;;30.20;83.60;;;;;;5092764;28;19967;-57
2022/02/01 05:10:51;;;;;;;;;;;30.10;84.20;;;;;;5092884;28;19959;-56
2022/02/01 05:16:44;;;;;;;;;;;30.10;84.30;;;;;;5092408;28;19947;-58
2022/02/01 05:18:50;;;;;;;;;;;30.00;84.70;;;;;;5089571;28;20362;-60
2022/02/01 05:21:23;;;;;;;;;;;29.90;85.10;;;;;;5093086;28;20254;-57
2022/02/01 05:23:50;;;;;;;;;;;30.00;85.00;;;;;;5093184;28;19951;-58
2022/02/01 05:26:17;;;;;;;;;;;30.00;85.00;;;;;;5095725;28;19912;-58
2022/02/01 05:28:44;;;;;;;;;;;29.90;85.20;;;;;;5096262;28;19908;-55
2022/02/01 05:31:29;;;;;;;;;;;29.80;85.40;;;;;;5095718;28;19912;-56
2022/02/01 05:33:56;;;;;;;;;;;29.80;85.10;;;;;;5096188;28;19931;-52
2022/02/01 05:36:23;;;;;;;;;;;29.80;85.40;;;;;;5096142;28;19986;-57
2022/02/01 05:38:52;;;;;;;;;;;29.80;85.70;;;;;;5096119;28;19916;-50
2022/02/01 05:41:19;;;;;;;;;;;29.70;86.00;;;;;;5095905;28;19927;-60
2022/02/01 05:43:45;;;;;;;;;;;29.70;85.90;;;;;;5094746;28;19912;-55
2022/02/01 05:46:12;;;;;;;;;;;29.80;85.20;;;;;;5096242;28;19908;-58
2022/02/01 05:48:39;;;;;;;;;;;29.80;85.00;;;;;;5094405;28;19993;-53
2022/02/01 05:51:07;;;;;;;;;;;29.80;85.10;;;;;;5095692;28;20223;-54
2022/02/01 05:53:33;;;;;;;;;;;29.80;86.30;;;;;;5095604;28;19959;-55
2022/02/01 05:56:00;;;;;;;;;;;29.70;86.20;;;;;;5095630;28;20369;-55
2022/02/01 05:58:27;;;;;;;;;;;29.60;86.40;;;;;;5095647;28;19919;-57
2022/02/01 06:00:53;;;;;;;;;;;29.50;88.10;;;;;;5095587;28;19916;-57
2022/02/01 06:03:20;;;;;;;;;;;29.50;88.50;;;;;;5095844;28;20358;-57
2022/02/01 06:05:47;;;;;;;;;;;29.40;89.00;;;;;;5095689;28;19973;-60
2022/02/01 06:08:13;;;;;;;;;;;29.40;89.30;;;;;;5094904;28;19912;-56
2022/02/01 06:10:40;;;;;;;;;;;29.30;89.90;;;;;;5095433;28;19965;-59
2022/02/01 06:13:07;;;;;;;;;;;29.30;90.00;;;;;;5095847;28;19912;-56
2022/02/01 06:15:35;;;;;;;;;;;29.20;90.30;;;;;;5095732;28;19908;-59
2022/02/01 06:18:01;;;;;;;;;;;29.10;90.30;;;;;;5094244;28;19969;-58
2022/02/01 06:20:28;;;;;;;;;;;29.00;90.50;;;;;;5095612;28;19951;-57
2022/02/01 06:22:55;;;;;;;;;;;29.00;90.70;;;;;;5095253;28;20269;-59
2022/02/01 06:25:47;;;;;;;;;;;28.90;90.70;;;;;;5094180;28;19915;-57
2022/02/01 06:28:08;;;;;;;;;;;28.90;91.10;;;;;;5094831;28;20274;-56
2022/02/01 06:30:35;;;;;;;;;;;28.80;90.60;;;;;;5095463;28;19908;-58
2022/02/01 06:33:02;;;;;;;;;;;28.80;90.60;;;;;;5095001;28;19962;-57
2022/02/01 06:35:30;;;;;;;;;;;28.70;90.70;;;;;;5127011;27;20278;-56
2022/02/01 06:37:57;;;;;;;;;;;28.70;90.60;;;;;;5093836;28;19912;-51
2022/02/01 06:40:24;;;;;;;;;;;28.60;90.70;;;;;;5095409;28;19955;-59
2022/02/01 06:42:51;;;;;;;;;;;28.60;90.60;;;;;;5095003;28;19908;-56
2022/02/01 06:45:18;;;;;;;;;;;28.60;90.60;;;;;;5095085;28;19908;-55
2022/02/01 06:47:45;;;;;;;;;;;28.70;90.70;;;;;;5094957;28;20286;-59
2022/02/01 06:50:13;;;;;;;;;;;28.70;90.60;;;;;;5094538;28;19934;-57
2022/02/01 06:52:39;;;;;;;;;;;28.60;90.60;;;;;;5094657;28;19908;-57
2022/02/01 06:55:06;;;;;;;;;;;28.60;90.50;;;;;;5094949;28;19909;-53
2022/02/01 06:57:37;;;;;;;;;;;28.50;90.50;;;;;;5094819;28;19908;-54
2022/02/01 07:00:08;;;;;;;;;;;28.60;90.70;;;;;;5094653;28;19919;-57
2022/02/01 07:02:35;;;;;;;;;;;28.50;90.60;;;;;;5094483;28;19958;-52
2022/02/01 07:05:01;;;;;;;;;;;28.50;90.60;;;;;;5094282;28;19994;-59
2022/02/01 07:07:28;;;;;;;;;;;28.40;90.70;;;;;;5094347;28;19908;-57
2022/02/01 07:09:55;;;;;;;;;;;28.40;90.50;;;;;;5094404;28;19924;-58
2022/02/01 07:12:22;;;;;;;;;;;28.30;90.80;;;;;;5094410;28;20358;-55
2022/02/01 07:14:49;;;;;;;;;;;28.30;90.90;;;;;;5094556;28;19912;-59
2022/02/01 07:17:15;;;;;;;;;;;28.30;91.00;;;;;;5094528;28;19908;-59
2022/02/01 07:19:42;;;;;;;;;;;28.20;91.10;;;;;;5127004;27;19909;-50
2022/02/01 07:22:10;;;;;;;;;;;28.20;91.10;;;;;;5093890;28;19912;-60
2022/02/01 07:24:49;;;;;;;;;;;28.20;91.10;;;;;;5094306;28;19912;-59
2022/02/01 07:27:32;;;;;;;;;;;28.10;91.10;;;;;;5093996;28;20200;-56
2022/02/01 07:30:00;;;;;;;;;;;28.10;91.40;;;;;;5092165;28;19912;-59
2022/02/01 07:32:27;;;;;;;;;;;28.10;91.40;;;;;;5094084;28;20011;-59
2022/02/01 07:34:53;;;;;;;;;;;28.00;91.40;;;;;;5094176;28;20428;-59
2022/02/01 07:37:21;;;;;;;;;;;28.10;91.50;;;;;;5093935;28;19961;-60
2022/02/01 07:39:48;;;;;;;;;;;28.00;91.40;;;;;;5093820;28;19912;-57
2022/02/01 07:42:15;;;;;;;;;;;28.00;91.50;;;;;;5093389;28;19959;-59
2022/02/01 07:44:41;;;;;;;;;;;28.00;91.60;;;;;;5094093;28;19915;-61
2022/02/01 07:47:16;;;;;;;;;;;28.00;91.70;;;;;;5094045;28;19995;-59
2022/02/01 07:49:43;;;;;;;;;;;28.00;91.80;;;;;;5093915;28;19908;-62
2022/02/01 07:54:55;;;;;;;;;;;27.90;91.80;;;;;;5094031;28;19933;-55
2022/02/01 07:57:21;;;;;;;;;;;27.90;91.90;;;;;;5093426;28;19908;-61
2022/02/01 07:59:48;;;;;;;;;;;27.90;92.00;;;;;;5094232;28;19912;-60
2022/02/01 08:02:20;;;;;;;;;;;27.80;92.00;;;;;;5092709;28;19919;-60
2022/02/01 08:04:47;;;;;;;;;;;27.80;92.00;;;;;;5093915;28;20008;-55
2022/02/01 08:07:15;;;;;;;;;;;27.80;92.10;;;;;;5093961;28;19968;-56
2022/02/01 08:09:47;;;;;;;;;;;27.80;92.10;;;;;;5093276;28;19923;-62
2022/02/01 08:17:14;;;;;;;;;;;27.70;92.30;;;;;;5093494;28;20343;-59
2022/02/01 08:22:32;;;;;;;;;;;27.60;92.20;;;;;;5093575;28;19913;-61
2022/02/01 08:24:59;;;;;;;;;;;27.60;92.30;;;;;;5093902;28;19934;-56
2022/02/01 08:27:26;;;;;;;;;;;27.60;92.30;;;;;;5093333;28;19908;-58
2022/02/01 08:29:52;;;;;;;;;;;27.60;92.40;;;;;;5093162;28;19947;-58
2022/02/01 08:32:19;;;;;;;;;;;27.50;92.30;;;;;;5094289;28;19994;-58
2022/02/01 08:34:46;;;;;;;;;;;27.50;92.40;;;;;;5093506;28;19908;-60
2022/02/01 08:37:12;;;;;;;;;;;27.50;92.50;;;;;;5093392;28;20007;-58
2022/02/01 08:39:39;;;;;;;;;;;27.50;92.50;;;;;;5092089;28;19908;-57
2022/02/01 08:42:06;;;;;;;;;;;27.40;92.50;;;;;;5093073;28;19962;-60
2022/02/01 08:44:35;;;;;;;;;;;27.40;92.50;;;;;;5093561;28;20381;-56
2022/02/01 08:47:02;;;;;;;;;;;27.40;92.60;;;;;;5092356;28;19999;-60
2022/02/01 08:49:29;;;;;;;;;;;27.40;92.60;;;;;;5093636;28;19908;-60
2022/02/01 08:52:02;;;;;;;;;;;27.40;92.70;;;;;;5093289;28;20044;-58
2022/02/01 08:54:31;;;;;;;;;;;27.40;92.70;;;;;;5093081;28;19995;-60
2022/02/01 08:59:42;;;;;;;;;;;27.30;92.70;;;;;;5094305;28;20412;-62
2022/02/01 09:02:09;;;;;;;;;;;27.40;92.80;;;;;;5097176;28;19977;-61
2022/02/01 09:04:36;;;;;;;;;;;27.30;92.80;;;;;;5096950;28;20301;-57
2022/02/01 09:07:04;;;;;;;;;;;27.30;92.80;;;;;;5097196;28;19908;-56
2022/02/01 09:09:31;;;;;;;;;;;27.30;92.80;;;;;;5096944;28;20007;-59
2022/02/01 09:11:58;;;;;;;;;;;27.30;92.90;;;;;;5096595;28;20413;-56
2022/02/01 09:14:25;;;;;;;;;;;27.30;92.90;;;;;;5097024;28;19948;-58
2022/02/01 09:16:52;;;;;;;;;;;27.30;92.90;;;;;;5097123;28;19908;-62
2022/02/01 09:19:19;;;;;;;;;;;27.30;92.90;;;;;;5096829;28;19947;-59
2022/02/01 09:21:46;;;;;;;;;;;27.30;92.90;;;;;;5097183;28;20007;-57
2022/02/01 09:24:13;;;;;;;;;;;27.30;92.90;;;;;;5096693;28;19912;-61
2022/02/01 09:26:40;;;;;;;;;;;27.30;93.00;;;;;;5097088;28;19908;-60
2022/02/01 09:29:09;;;;;;;;;;;27.30;93.00;;;;;;5096984;28;20400;-62
2022/02/01 09:31:36;;;;;;;;;;;27.30;93.00;;;;;;5096729;28;19908;-54
2022/02/01 09:34:04;;;;;;;;;;;27.30;93.00;;;;;;5096447;28;20003;-61
2022/02/01 09:36:31;;;;;;;;;;;27.30;93.00;;;;;;5096710;28;19908;-54
2022/02/01 09:38:58;;;;;;;;;;;27.30;93.00;;;;;;5096836;28;19969;-62
2022/02/01 09:41:24;;;;;;;;;;;27.30;93.10;;;;;;5096619;28;19958;-61
2022/02/01 09:43:52;;;;;;;;;;;27.30;93.10;;;;;;5096561;28;19908;-56
2022/02/01 09:46:20;;;;;;;;;;;27.20;93.10;;;;;;5096391;28;19908;-63
2022/02/01 09:48:47;;;;;;;;;;;27.20;93.20;;;;;;5096464;28;19919;-64
2022/02/01 09:51:14;;;;;;;;;;;27.20;93.20;;;;;;5096411;28;19908;-56
2022/02/01 09:53:41;;;;;;;;;;;27.20;93.20;;;;;;5096282;28;19908;-62
2022/02/01 09:56:09;;;;;;;;;;;27.20;93.20;;;;;;5096260;28;19935;-61
2022/02/01 09:58:37;;;;;;;;;;;27.20;93.20;;;;;;5096478;28;19918;-61
2022/02/01 10:01:18;;;;;;;;;;;27.20;93.20;;;;;;5096234;28;19916;-56
2022/02/01 10:04:06;;;;;;;;;;;27.20;93.20;;;;;;5096179;28;19908;-58
2022/02/01 10:06:34;;;;;;;;;;;27.20;93.20;;;;;;5096084;28;19915;-57
2022/02/01 10:09:04;;;;;;;;;;;27.20;93.20;;;;;;5095881;28;19926;-55
2022/02/01 10:11:41;;;;;;;;;;;27.20;93.20;;;;;;5094730;28;20326;-59
2022/02/01 10:14:19;;;;;;;;;;;27.20;93.20;;;;;;5096194;28;20266;-61
2022/02/01 10:16:50;;;;;;;;;;;27.20;93.20;;;;;;5096182;28;19914;-62
2022/02/01 10:19:20;;;;;;;;;;;27.20;93.40;;;;;;5096255;28;20377;-62
2022/02/01 10:21:51;;;;;;;;;;;27.20;93.40;;;;;;5096156;28;19920;-60
2022/02/01 10:24:31;;;;;;;;;;;27.20;93.20;;;;;;5096090;28;19908;-60
2022/02/01 10:27:09;;;;;;;;;;;27.20;93.10;;;;;;5095946;28;19908;-57
2022/02/01 10:29:38;;;;;;;;;;;27.20;93.10;;;;;;5095475;28;19915;-57
2022/02/01 10:32:12;;;;;;;;;;;27.20;93.10;;;;;;5095496;28;19939;-63
2022/02/01 10:34:42;;;;;;;;;;;27.20;93.10;;;;;;5095671;28;19915;-57
2022/02/01 10:37:17;;;;;;;;;;;27.20;93.40;;;;;;5095573;28;20259;-62
2022/02/01 10:39:44;;;;;;;;;;;27.20;93.10;;;;;;5095339;28;19915;-53
2022/02/01 10:42:12;;;;;;;;;;;27.10;93.10;;;;;;5094942;28;20710;-61
2022/02/01 10:44:39;;;;;;;;;;;27.10;93.00;;;;;;5095092;28;20387;-57
2022/02/01 10:47:06;;;;;;;;;;;27.10;93.10;;;;;;5095108;28;20385;-52
2022/02/01 10:49:34;;;;;;;;;;;27.10;93.10;;;;;;5095102;28;19908;-56
2022/02/01 10:52:04;;;;;;;;;;;27.10;93.10;;;;;;5095070;28;20319;-56
2022/02/01 10:54:32;;;;;;;;;;;27.10;93.10;;;;;;5094269;28;19915;-61
2022/02/01 10:57:00;;;;;;;;;;;27.10;93.10;;;;;;5095122;28;19915;-53
2022/02/01 10:59:27;;;;;;;;;;;27.00;93.10;;;;;;5128329;27;20025;-58
2022/02/01 11:01:55;;;;;;;;;;;27.10;93.20;;;;;;5128052;27;20290;-58
2022/02/01 11:04:22;;;;;;;;;;;27.00;93.20;;;;;;5095239;28;20049;-60
2022/02/01 11:06:53;;;;;;;;;;;27.10;93.30;;;;;;5095107;28;20239;-58
2022/02/01 11:09:24;;;;;;;;;;;27.00;93.40;;;;;;5094977;28;20025;-55
2022/02/01 11:11:52;;;;;;;;;;;27.00;93.40;;;;;;5094701;28;19999;-57
2022/02/01 11:14:19;;;;;;;;;;;27.00;93.30;;;;;;5095226;28;19908;-57
2022/02/01 11:16:46;;;;;;;;;;;27.00;93.40;;;;;;5095407;28;19948;-60
2022/02/01 11:19:13;;;;;;;;;;;27.00;93.50;;;;;;5094863;28;19908;-61
2022/02/01 11:21:44;;;;;;;;;;;27.00;93.50;;;;;;5094904;28;20362;-61
2022/02/01 11:24:21;;;;;;;;;;;27.00;93.50;;;;;;5094291;28;19908;-60
2022/02/01 11:26:51;;;;;;;;;;;27.00;93.50;;;;;;5094874;28;19957;-62
2022/02/01 11:32:20;;;;;;;;;;;27.00;93.60;;;;;;5072538;28;19954;-58
2022/02/01 11:34:47;;;;;;;;;;;26.90;93.50;;;;;;5090174;28;19912;-56
2022/02/01 11:37:15;;;;;;;;;;;26.90;93.60;;;;;;5094621;28;19908;-59
2022/02/01 11:39:53;;;;;;;;;;;26.90;93.60;;;;;;5094257;28;20321;-58
2022/02/01 11:42:20;;;;;;;;;;;26.90;93.60;;;;;;5094185;28;19999;-58
2022/02/01 11:44:47;;;;;;;;;;;26.90;93.80;;;;;;5094258;28;20397;-57
2022/02/01 11:47:16;;;;;;;;;;;26.90;93.60;;;;;;5094404;28;20317;-56
2022/02/01 11:49:53;;;;;;;;;;;26.90;93.60;;;;;;5094335;28;19953;-59
2022/02/01 11:52:22;;;;;;;;;;;26.90;93.70;;;;;;5094055;28;19948;-59
2022/02/01 11:54:49;;;;;;;;;;;26.90;93.60;;;;;;5093941;28;19908;-56
2022/02/01 11:57:16;;;;;;;;;;;26.90;93.70;;;;;;5093920;28;19912;-59
2022/02/01 11:59:52;;;;;;;;;;;26.90;93.70;;;;;;5094020;28;19920;-61
2022/02/01 12:02:24;;;;;;;;;;;26.90;93.70;;;;;;5094134;28;20380;-59
2022/02/01 12:05:04;;;;;;;;;;;26.90;93.70;;;;;;5093470;27;21195;-59
2022/02/01 12:07:54;;;;;;;;;;;26.80;93.60;;;;;;5093871;28;19999;-56
2022/02/01 12:10:21;;;;;;;;;;;26.80;93.70;;;;;;5090247;28;19955;-56
2022/02/01 12:12:48;;;;;;;;;;;26.80;93.70;;;;;;5093485;28;20317;-59
2022/02/01 12:15:14;;;;;;;;;;;26.80;93.70;;;;;;5093721;28;19912;-56
2022/02/01 12:17:47;;;;;;;;;;;26.80;93.70;;;;;;5093767;28;19915;-57
2022/02/01 12:20:15;;;;;;;;;;;26.80;93.70;;;;;;5093517;28;20343;-58
2022/02/01 12:22:48;;;;;;;;;;;26.80;93.70;;;;;;5093914;28;20424;-60
2022/02/01 12:25:15;;;;;;;;;;;26.80;93.70;;;;;;5093474;28;19908;-57
2022/02/01 12:27:45;;;;;;;;;;;26.80;93.70;;;;;;5093395;28;19965;-59
2022/02/01 12:30:13;;;;;;;;;;;26.80;93.80;;;;;;5093267;28;19987;-58
2022/02/01 12:32:53;;;;;;;;;;;26.80;93.70;;;;;;5093556;28;20382;-60
2022/02/01 12:35:33;;;;;;;;;;;26.80;93.70;;;;;;5092581;28;19912;-56
2022/02/01 12:38:10;;;;;;;;;;;26.80;93.80;;;;;;5093133;28;19973;-58
2022/02/01 12:40:38;;;;;;;;;;;26.80;93.80;;;;;;5093308;28;19927;-61
2022/02/01 12:43:17;;;;;;;;;;;26.80;93.80;;;;;;5093669;28;19970;-59
2022/02/01 12:46:00;;;;;;;;;;;26.80;93.80;;;;;;5093570;28;19915;-60
2022/02/01 12:48:27;;;;;;;;;;;26.70;93.80;;;;;;5093444;28;20449;-61
2022/02/01 12:51:01;;;;;;;;;;;26.80;93.80;;;;;;5093560;28;20409;-60
2022/02/01 12:53:37;;;;;;;;;;;26.70;93.80;;;;;;5093544;28;19943;-60
2022/02/01 12:56:11;;;;;;;;;;;26.70;93.80;;;;;;5093268;28;19908;-58
2022/02/01 12:58:38;;;;;;;;;;;26.70;93.80;;;;;;5093194;28;19912;-58
2022/02/01 13:01:05;;;;;;;;;;;26.70;93.80;;;;;;5093595;28;19971;-55
2022/02/01 13:03:42;;;;;;;;;;;26.70;93.80;;;;;;5093496;28;20243;-53
2022/02/01 13:06:11;;;;;;;;;;;26.70;93.80;;;;;;5093111;28;19908;-53
2022/02/01 13:12:56;;;;;;;;;;;26.70;93.80;;;;;;5092320;28;20389;-59
2022/02/01 13:20:11;;;;;;;;;;;26.70;93.80;;;;;;5093176;28;19918;-55
2022/02/01 13:23:01;;;;;;;;;;;26.70;93.80;;;;;;5093264;28;19908;-56
2022/02/01 13:25:30;;;;;;;;;;;26.70;93.80;;;;;;5093305;28;19915;-59
2022/02/01 13:27:58;;;;;;;;;;;26.70;93.70;;;;;;5092786;28;20358;-59
2022/02/01 13:30:24;;;;;;;;;;;26.70;93.80;;;;;;5093010;28;19962;-60
2022/02/01 13:32:53;;;;;;;;;;;26.70;93.80;;;;;;5093121;28;19909;-60
2022/02/01 13:35:20;;;;;;;;;;;26.70;93.80;;;;;;5093214;28;20007;-56
2022/02/01 13:37:47;;;;;;;;;;;26.70;93.80;;;;;;5093151;28;20098;-57
2022/02/01 13:40:28;;;;;;;;;;;26.70;93.80;;;;;;5092840;28;20370;-59
2022/02/01 13:42:57;;;;;;;;;;;26.70;93.80;;;;;;5093090;28;19920;-56
2022/02/01 13:45:35;;;;;;;;;;;26.70;93.80;;;;;;5093164;28;19912;-60
2022/02/01 13:48:03;;;;;;;;;;;26.70;93.80;;;;;;5096539;28;19947;-61
2022/02/01 13:50:34;;;;;;;;;;;26.70;93.80;;;;;;5096497;28;19915;-59
2022/02/01 13:53:02;;;;;;;;;;;26.70;93.80;;;;;;5096509;28;19999;-57
2022/02/01 13:55:30;;;;;;;;;;;26.60;93.80;;;;;;5096396;28;20362;-58
2022/02/01 13:58:10;;;;;;;;;;;26.60;93.70;;;;;;5096329;28;19977;-50
2022/02/01 14:00:41;;;;;;;;;;;26.70;93.80;;;;;;5096310;28;19923;-57
2022/02/01 14:03:23;;;;;;;;;;;26.70;93.80;;;;;;5096124;28;19919;-59
2022/02/01 14:11:44;;;;;;;;;;;26.70;93.80;;;;;;5096089;28;19915;-61
2022/02/01 14:33:24;;;;;;;;;;;26.70;93.60;;;;;;5095842;28;20370;-61
2022/02/01 14:35:37;;;;;;;;;;;26.70;93.60;;;;;;5095638;28;19919;-57
2022/02/01 14:38:23;;;;;;;;;;;26.70;93.50;;;;;;5095574;28;20381;-58
2022/02/01 14:43:45;;;;;;;;;;;26.60;93.50;;;;;;5096093;28;20365;-60
2022/02/01 14:46:12;;;;;;;;;;;26.70;93.50;;;;;;5095412;28;19908;-60
2022/02/01 14:48:39;;;;;;;;;;;26.60;93.50;;;;;;5095960;28;19909;-61
2022/02/01 14:51:21;;;;;;;;;;;26.60;93.50;;;;;;5095303;28;19908;-58
2022/02/01 14:53:48;;;;;;;;;;;26.50;93.50;;;;;;5095334;28;19915;-60
2022/02/01 14:56:23;;;;;;;;;;;26.50;93.60;;;;;;5127588;27;20002;-60
2022/02/01 15:14:48;;;;;;;;;;;26.30;93.70;;;;;;5095134;28;19931;-56
2022/02/01 15:17:16;;;;;;;;;;;26.30;93.70;;;;;;5094889;28;19915;-59
2022/02/01 15:19:44;;;;;;;;;;;26.30;93.70;;;;;;5095001;28;19912;-56
2022/02/01 15:22:11;;;;;;;;;;;26.30;93.80;;;;;;5094811;28;20044;-60
2022/02/01 15:24:37;;;;;;;;;;;26.30;93.80;;;;;;5095035;28;20046;-60
2022/02/01 15:27:05;;;;;;;;;;;26.20;93.70;;;;;;5093536;28;19908;-60
2022/02/01 15:29:32;;;;;;;;;;;26.20;93.80;;;;;;5094589;28;20011;-57
2022/02/01 15:31:59;;;;;;;;;;;26.20;93.80;;;;;;5094473;28;19915;-58
2022/02/01 15:34:31;;;;;;;;;;;26.20;93.80;;;;;;5094633;28;20278;-57
2022/02/01 15:37:01;;;;;;;;;;;26.10;93.70;;;;;;5094625;28;19919;-60
2022/02/01 15:58:44;;;;;;;;;;;26.00;93.90;;;;;;5094614;28;20014;-60
2022/02/01 16:01:17;;;;;;;;;;;26.00;93.80;;;;;;5094117;28;19916;-60
2022/02/01 16:03:46;;;;;;;;;;;26.00;93.90;;;;;;5094055;28;19908;-60
2022/02/01 16:06:13;;;;;;;;;;;25.90;93.80;;;;;;5093881;28;19908;-60
2022/02/01 16:08:43;;;;;;;;;;;26.00;93.90;;;;;;5093709;28;19920;-56
2022/02/01 16:11:12;;;;;;;;;;;26.00;93.90;;;;;;5093887;28;19999;-59
2022/02/01 16:13:44;;;;;;;;;;;25.90;93.90;;;;;;5093705;28;19908;-61
2022/02/01 16:16:14;;;;;;;;;;;25.90;93.90;;;;;;5093706;28;19911;-55
2022/02/01 16:18:42;;;;;;;;;;;25.90;93.90;;;;;;5093769;28;19909;-59
2022/02/01 16:21:11;;;;;;;;;;;25.90;93.90;;;;;;5093701;28;20014;-60
2022/02/01 16:23:38;;;;;;;;;;;25.90;93.90;;;;;;5093835;28;20385;-60
2022/02/01 16:26:08;;;;;;;;;;;25.90;93.90;;;;;;5092236;28;19996;-56
2022/02/01 16:28:35;;;;;;;;;;;25.90;93.90;;;;;;5093643;28;19934;-60
2022/02/01 16:31:02;;;;;;;;;;;25.80;93.90;;;;;;5093522;28;19915;-59
2022/02/01 16:33:28;;;;;;;;;;;25.80;93.90;;;;;;5093801;28;19908;-60
2022/02/01 16:35:55;;;;;;;;;;;25.80;93.90;;;;;;5093652;28;19947;-59
2022/02/01 16:38:24;;;;;;;;;;;25.80;93.90;;;;;;5093698;28;19908;-60
2022/02/01 16:40:51;;;;;;;;;;;25.80;93.90;;;;;;5092261;28;19959;-61
2022/02/01 16:43:20;;;;;;;;;;;25.80;93.90;;;;;;5093546;28;19915;-58
2022/02/01 16:45:47;;;;;;;;;;;25.80;93.90;;;;;;5093697;28;19952;-58
2022/02/01 16:48:16;;;;;;;;;;;25.80;93.90;;;;;;5093292;28;20279;-58
2022/02/01 16:50:43;;;;;;;;;;;25.80;93.90;;;;;;5093542;28;20401;-61
2022/02/01 16:53:16;;;;;;;;;;;25.80;93.90;;;;;;5093641;28;19932;-60
2022/02/01 16:58:45;;;;;;;;;;;25.80;93.90;;;;;;5079929;28;19943;-57
2022/02/01 17:01:12;;;;;;;;;;;25.80;93.90;;;;;;5093269;28;20320;-57
2022/02/01 17:03:38;;;;;;;;;;;25.80;93.90;;;;;;5093401;28;20274;-61
2022/02/01 17:06:06;;;;;;;;;;;25.70;93.90;;;;;;5093167;28;19908;-61
2022/02/01 17:08:33;;;;;;;;;;;25.70;93.90;;;;;;5092975;28;20282;-60
2022/02/01 17:11:12;;;;;;;;;;;25.70;93.90;;;;;;5093194;28;19970;-58
2022/02/01 17:13:59;;;;;;;;;;;25.70;93.90;;;;;;5093408;28;19908;-58
2022/02/01 17:21:38;;;;;;;;;;;25.70;94.00;;;;;;5095399;28;19916;-62
2022/02/01 17:24:19;;;;;;;;;;;25.60;93.90;;;;;;5096753;28;19919;-58
2022/02/01 17:26:46;;;;;;;;;;;25.60;93.90;;;;;;5097180;28;20043;-52
2022/02/01 17:29:13;;;;;;;;;;;25.60;94.00;;;;;;5096987;28;19909;-50
2022/02/01 17:31:39;;;;;;;;;;;25.60;93.90;;;;;;5096857;28;20404;-53
2022/02/01 17:34:06;;;;;;;;;;;25.60;93.90;;;;;;5097141;28;19915;-60